Sant Hilari Sacalm





Hora UTC 22:45
Temperatura 6.3 ºC
Sòl 15 cm 5.7 ºC
Humitat 97.6 %
Pressió 1014.5 hPa
Pluja 2.5 mm
Velocitat vent 3.7 km/h
Direcció vent N
Radiació solar 0.1 W/m²

Dades diàries 2020-03-31



Hora UTC (hivern +1h; estiu +2h)
Temperatura (ºC) Humitat (%) Pressió (hPa) Velocitat vent (km/h) Precipitació (mm) Radiació solar (W/m²)
Hora UTC Aire Sòl 15 cm Humitat Pressió Vel. Dir. Vel. Max Dir. Intent. màx 5 min. Rad. Sol.
00:05 4.3 3.9 96.1 1012.5 0.0 NNE 0.0 N 0.0 0.1
00:10 4.4 3.9 95.9 1012.5 0.0 NNE 0.0 WNW 0.0 0.1
00:15 4.4 3.9 96.2 1012.5 0.0 NNE 0.0 WNW 0.0 0.1
00:20 4.4 3.9 96.1 1012.5 0.1 SE 3.4 W 0.0 0.1
00:25 4.5 3.9 94.5 1012.6 2.5 NE 8.8 NNE 0.0 0.1
00:30 4.6 3.9 93.7 1012.5 0.2 NE 3.4 NE 0.0 0.1
00:35 4.5 3.8 93.0 1012.5 0.4 NE 3.4 NNE 0.0 0.1
00:40 4.5 3.8 93.4 1012.5 0.6 NE 6.1 NE 0.0 0.1
00:45 4.4 3.7 93.6 1012.5 1.3 ENE 6.1 NE 0.0 0.1
00:50 4.4 3.7 94.1 1012.4 0.1 N 3.4 N 0.1 0.1
00:55 4.4 3.7 94.7 1012.4 0.0 NNE 0.0 N 0.0 0.1
01:00 4.4 3.8 95.4 1012.3 0.8 NNE 6.1 NNE 0.0 0.1
01:05 4.3 3.7 95.5 1012.3 1.1 NE 6.1 NE 0.0 0.1
01:10 4.3 3.7 95.6 1012.2 0.3 ENE 3.4 ENE 0.0 0.1
01:15 4.2 3.7 95.8 1012.2 0.5 NNE 6.1 NE 0.0 0.1
01:20 4.2 3.6 96.0 1012.2 0.0 NNE 3.4 NNE 0.0 0.1
01:25 4.2 3.7 96.3 1012.2 0.4 N 3.4 N 0.0 0.1
01:30 4.2 3.6 96.7 1012.1 1.4 NNE 6.1 N 0.0 0.1
01:35 4.1 3.6 96.9 1012.0 1.1 NE 6.1 NE 0.0 0.1
01:40 4.1 3.6 97.0 1012.0 1.7 NNE 6.1 NNE 0.0 0.1
01:45 4.1 3.6 97.1 1012.0 1.7 NNE 6.1 NNE 0.0 0.1
01:50 4.0 3.5 97.1 1012.0 2.4 NE 6.1 NNE 0.0 0.1
01:55 3.9 3.5 97.2 1012.0 1.7 NE 6.1 NE 0.0 0.1
02:00 3.9 3.5 97.3 1011.9 2.5 NNE 6.1 NE 0.0 0.1
02:05 3.8 3.4 97.5 1011.9 1.8 NE 6.1 ENE 0.0 0.1
02:10 3.8 3.4 97.7 1011.9 2.4 NE 6.1 NE 0.0 0.1
02:15 3.7 3.3 97.8 1011.9 2.7 NNE 8.8 NNE 0.0 0.1
02:20 3.7 3.3 97.8 1011.9 3.3 NNE 6.1 NNE 0.0 0.1
02:25 3.6 3.2 97.7 1011.8 3.5 NNE 8.8 NNE 0.0 0.1
02:30 3.5 3.2 97.7 1011.8 1.9 NNE 8.8 NNE 0.0 0.1
02:35 3.5 3.1 97.4 1011.8 4.7 NE 8.8 E 0.0 0.1
02:40 3.5 3.0 97.1 1011.8 2.4 NNE 6.1 NE 0.0 0.1
02:45 3.5 3.0 96.8 1011.8 2.5 NNE 8.8 NNE 0.0 0.1
02:50 3.5 3.0 96.7 1011.9 0.7 NNE 6.1 NNE 0.0 0.1
02:55 3.5 3.0 96.3 1011.9 0.1 NE 3.4 NE 0.0 0.1
03:00 3.5 3.0 95.8 1011.9 0.8 NE 3.4 ENE 0.0 0.1
03:05 3.6 3.0 95.9 1012.0 1.7 NNE 6.1 NNE 0.0 0.1
03:10 3.5 3.0 95.8 1012.0 5.4 NE 8.8 NE 0.0 0.1
03:15 3.5 2.9 95.1 1011.9 4.5 NE 11.5 NE 0.0 0.1
03:20 3.5 2.9 94.6 1011.9 2.7 ENE 8.8 NE 0.0 0.1
03:25 3.5 2.9 94.1 1011.9 2.1 ENE 8.8 NE 0.0 0.1
03:30 3.5 2.9 93.8 1011.9 2.2 NNE 8.8 NNE 0.0 0.1
03:35 3.5 2.9 94.0 1011.9 4.1 NNE 8.8 N 0.0 0.1
03:40 3.5 2.8 93.6 1011.9 5.3 NNE 11.5 NNE 0.0 0.1
03:45 3.5 2.8 94.3 1011.9 1.8 NE 6.1 NNE 0.0 0.1
03:50 3.4 2.8 94.7 1011.9 2.3 NNE 6.1 NE 0.0 0.1
03:55 3.4 2.8 95.1 1012.0 1.9 NE 8.8 ENE 0.0 0.1
04:00 3.4 2.8 95.7 1012.1 1.3 NNE 6.1 ENE 0.0 0.1
04:05 3.4 2.8 96.1 1012.1 2.6 NNE 6.1 NNE 0.0 0.1
04:10 3.4 2.8 96.4 1012.1 3.7 NNE 6.1 NNE 0.0 0.1
04:15 3.4 2.8 96.7 1012.1 3.1 N 6.1 NNE 0.0 0.1
04:20 3.3 2.8 96.8 1012.1 4.2 NNE 8.8 NE 0.0 0.1
04:25 3.3 2.8 96.8 1012.1 2.9 NNE 8.8 N 0.0 0.1
04:30 3.2 2.8 97.1 1012.1 3.7 N 8.8 NNE 0.0 0.1
04:35 3.2 2.8 97.3 1012.0 4.9 NNE 8.8 N 0.0 0.1
04:40 3.2 2.8 97.4 1012.0 4.9 NNE 8.8 NNE 0.0 0.1
04:45 3.2 2.7 97.5 1012.1 4.0 NNE 6.1 N 0.0 0.1
04:50 3.2 2.7 97.7 1012.1 4.3 NNE 8.8 NNE 0.0 0.1
04:55 3.2 2.7 97.7 1012.0 3.4 NNE 8.8 N 0.0 0.1
05:00 3.2 2.8 97.7 1011.9 2.8 NNE 8.8 NE 0.0 0.1
05:05 3.2 2.8 97.7 1011.9 0.3 NNE 3.4 NNE 0.0 0.1
05:10 3.2 2.8 97.8 1012.0 0.2 NNE 3.4 NNE 0.0 0.2
05:15 3.3 2.9 97.7 1012.0 0.0 NNE 0.0 NE 0.0 0.1
05:20 3.4 2.9 97.8 1011.9 0.0 NNE 0.0 NE 0.0 0.1
05:25 3.4 2.9 97.7 1011.8 1.2 NE 6.1 NE 0.1 0.2
05:30 3.4 3.0 97.7 1011.9 0.4 NNE 3.4 NNE 0.0 0.3
05:35 3.4 3.0 97.7 1012.0 0.0 NNE 0.0 NNE 0.0 0.4
05:40 3.5 3.1 97.8 1012.0 3.3 NNE 8.8 NNE 0.0 0.9
05:45 3.6 3.1 98.0 1012.1 3.9 NNE 8.8 NNE 0.0 2.0
05:50 3.6 3.1 97.9 1012.1 4.5 NNE 8.8 NNE 0.0 3.6
05:55 3.6 3.2 97.9 1012.2 2.4 NNW 6.1 N 0.0 5.8
06:00 3.6 3.3 98.1 1012.3 1.6 NNW 6.1 NNW 0.0 8.3
06:05 3.7 3.3 98.0 1012.4 2.8 NW 8.8 NNW 0.0 10.6
06:10 3.7 3.4 97.8 1012.5 3.3 NW 8.8 NW 0.0 13.8
06:15 3.7 3.4 97.6 1012.6 4.3 WNW 8.8 NW 0.0 18.3
06:20 3.8 3.5 97.7 1012.7 3.6 NW 8.8 NW 0.0 23.7
06:25 3.8 3.6 97.8 1012.6 4.5 NNW 8.8 NNW 0.0 25.6
06:30 3.9 3.7 97.8 1012.6 4.4 N 14.2 NNW 0.0 35.0
06:35 4.1 3.9 97.8 1012.6 1.1 N 6.1 NNW 0.0 40.5
06:40 4.2 4.1 97.6 1012.6 2.6 NNE 8.8 NNE 0.0 47.1
06:45 4.4 4.2 97.3 1012.6 3.8 NNE 6.1 NNE 0.0 58.1
06:50 4.5 4.4 97.2 1012.6 4.3 NNE 8.8 NNE 0.0 58.4
06:55 4.6 4.7 97.2 1012.6 3.4 N 6.1 N 0.0 66.8
07:00 4.8 4.9 97.2 1012.5 3.3 N 8.8 0.0 67.1
07:05 4.9 5.1 97.1 1012.5 4.2 N 6.1 N 0.0 68.7
07:10 5.0 5.2 96.6 1012.5 1.4 N 3.4 N 0.0 52.4
07:15 5.0 5.1 96.2 1012.5 0.1 NE 3.4 NNE 0.0 46.9
07:20 5.0 5.2 95.9 1012.5 1.0 N 6.1 N 0.0 51.3
07:25 5.1 5.3 96.1 1012.6 0.9 N 3.4 N 0.0 55.1
07:30 5.2 5.4 96.1 1012.6 0.3 N 6.1 N 0.0 61.4
07:35 5.3 5.5 95.9 1012.6 2.3 N 6.1 N 0.0 60.7
07:40 5.2 5.4 95.1 1012.6 0.6 NNE 3.4 NNE 0.0 54.5
07:45 5.3 5.5 95.1 1012.6 2.5 N 6.1 N 0.0 67.6
07:50 5.4 5.6 95.2 1012.6 3.9 N 6.1 N 0.0 84.3
07:55 5.4 5.8 95.0 1012.6 2.9 N 6.1 N 0.0 94.6
08:00 5.5 5.9 95.2 1012.7 2.9 N 6.1 N 0.0 98.2
08:05 5.6 6.1 94.7 1012.8 3.7 N 6.1 NNW 0.0 88.2
08:10 5.6 6.2 94.0 1012.8 4.2 NNE 8.8 N 0.0 105.8
08:15 5.8 6.4 93.7 1012.8 2.3 NNW 6.1 NNW 0.0 142.0
08:20 5.9 6.7 93.3 1012.8 4.1 N 8.8 N 0.0 170.2
08:25 6.1 6.9 92.5 1012.8 3.9 NNE 6.1 N 0.0 159.9
08:30 6.3 7.1 92.7 1012.9 2.3 N 6.1 NNW 0.0 131.4
08:35 6.4 7.3 91.7 1012.9 3.0 NNE 6.1 N 0.0 131.4
08:40 6.4 7.5 90.4 1013.0 3.1 E 8.8 E 0.0 140.4
08:45 6.4 7.6 89.9 1013.0 2.4 E 8.8 E 0.0 148.1
08:50 6.4 7.5 89.3 1013.0 3.7 E 8.8 ENE 0.0 152.8
08:55 6.4 7.6 89.8 1013.0 3.8 E 8.8 E 0.0 153.7
09:00 6.5 7.7 90.0 1013.0 2.0 ENE 6.1 ENE 0.0 135.5
09:05 6.5 7.7 89.4 1013.0 1.9 E 6.1 E 0.0 129.8
09:10 6.6 7.6 90.6 1013.0 1.9 NE 6.1 NNE 0.0 134.6
09:15 6.6 7.5 90.3 1013.0 1.8 NNE 6.1 ENE 0.0 111.0
09:20 6.7 7.5 90.6 1013.0 3.0 ENE 6.1 N 0.0 98.1
09:25 6.6 7.2 90.3 1013.0 1.3 ENE 6.1 ENE 0.0 87.3
09:30 6.5 7.0 90.9 1013.1 2.9 ENE 6.1 E 0.0 74.7
09:35 6.5 6.7 90.9 1013.0 4.2 NE 8.8 NE 0.0 73.1
09:40 6.4 6.5 91.4 1013.0 4.5 NE 8.8 NE 0.0 81.8
09:45 6.5 6.6 92.3 1013.0 2.7 NE 8.8 E 0.0 87.5
09:50 6.5 6.7 92.2 1013.0 2.9 NE 6.1 NNE 0.0 94.3
09:55 6.6 6.8 92.6 1013.1 1.3 NE 6.1 ENE 0.0 91.5
10:00 6.6 6.9 92.1 1013.1 2.2 NE 6.1 NE 0.0 100.6
10:05 6.7 7.0 91.6 1013.1 2.7 NNE 6.1 NNE 0.0 124.1
10:10 6.8 7.3 92.5 1013.1 4.5 N 8.8 N 0.0 133.7
10:15 7.0 7.6 91.6 1013.1 5.2 NNE 8.8 N 0.0 160.3
10:20 7.0 7.8 91.3 1013.1 5.4 N 11.5 NNE 0.0 176.4
10:25 7.1 7.9 90.7 1013.1 7.3 N 14.2 N 0.0 166.2
10:30 7.1 8.0 90.8 1013.1 8.1 NNE 14.2 NNE 0.0 188.5
10:35 7.1 8.0 89.7 1013.1 8.5 NNE 14.2 NNE 0.0 180.0
10:40 7.2 8.1 89.8 1013.1 5.7 NNE 11.5 N 0.0 170.0
10:45 7.3 8.2 89.9 1013.1 7.1 NNE 14.2 NNE 0.0 147.3
10:50 7.4 8.4 89.8 1013.1 4.9 N 8.8 N 0.0 124.5
10:55 7.5 8.4 89.3 1013.1 3.9 N 8.8 N 0.0 122.0
11:00 7.5 8.2 90.1 1013.0 5.1 NNE 8.8 NE 0.0 129.0
11:05 7.5 8.1 90.8 1013.0 6.3 N 11.5 NNE 0.0 138.4
11:10 7.6 8.2 90.9 1012.9 4.0 N 11.5 N 0.0 167.7
11:15 7.7 8.5 89.9 1013.0 1.7 NE 6.1 NNW 0.0 182.3
11:20 7.8 8.7 90.0 1013.0 3.2 NNE 6.1 NNE 0.0 180.6
11:25 7.9 8.7 89.3 1012.9 4.5 NNE 8.8 NNE 0.0 189.5
11:30 8.0 8.9 89.9 1012.9 4.5 N 8.8 N 0.0 202.5
11:35 8.0 9.1 88.8 1012.9 6.4 N 11.5 N 0.0 207.9
11:40 7.8 9.2 88.5 1012.9 1.4 N 6.1 NNW 0.0 211.9
11:45 8.1 9.6 89.2 1012.9 6.7 NNE 11.5 NE 0.0 198.2
11:50 8.2 9.5 88.7 1012.9 3.8 N 8.8 NNW 0.0 187.8
11:55 8.3 9.6 87.9 1012.9 5.5 N 11.5 N 0.0 188.2
12:00 8.2 9.7 87.1 1012.9 7.4 NNE 14.2 N 0.0 194.9
12:05 8.2 9.6 87.0 1012.9 3.9 NNE 8.8 NNE 0.0 173.3
12:10 8.0 9.6 87.3 1012.9 3.6 NNE 8.8 NNE 0.0 162.1
12:15 8.0 9.6 88.7 1012.9 3.9 NNE 8.8 NE 0.0 185.4
12:20 8.0 9.7 87.5 1013.0 4.0 ENE 11.5 ENE 0.0 224.1
12:25 8.1 10.1 87.1 1013.0 6.3 ENE 11.5 E 0.0 274.8
12:30 8.1 10.5 87.0 1013.0 6.2 E 14.2 ENE 0.0 275.2
12:35 8.1 10.6 86.6 1013.1 6.1 E 14.2 E 0.0 204.3
12:40 8.2 10.2 87.1 1013.0 6.1 NE 14.2 NE 0.0 120.2
12:45 8.0 9.4 87.4 1013.0 8.0 NE 14.2 ENE 0.0 103.2
12:50 7.9 9.0 87.5 1013.0 5.5 NE 11.5 NE 0.0 113.7
12:55 7.9 9.0 87.1 1013.0 5.8 ENE 11.5 E 0.0 123.9
13:00 8.0 9.0 87.2 1013.1 4.9 NE 11.5 ENE 0.0 125.0
13:05 7.9 8.9 86.3 1013.1 4.9 NE 11.5 ENE 0.0 109.0
13:10 7.8 8.7 86.0 1013.0 6.5 ENE 11.5 ENE 0.0 109.9
13:15 7.9 8.7 87.2 1013.1 3.0 NE 14.2 N 0.0 119.6
13:20 8.0 9.0 87.5 1013.1 1.8 ENE 8.8 E 0.0 137.9
13:25 8.2 9.2 89.1 1013.1 3.3 N 8.8 NNE 0.0 152.3
13:30 8.2 9.4 88.8 1013.1 1.8 NNE 6.1 NNE 0.0 170.6
13:35 8.3 9.6 88.6 1013.1 4.1 NNE 8.8 NNE 0.0 173.0
13:40 8.1 9.5 89.9 1013.1 5.4 NE 11.5 NNE 0.0 161.0
13:45 7.9 9.3 90.9 1013.0 4.5 NNE 11.5 N 0.0 152.2
13:50 7.9 9.3 91.7 1013.0 4.8 NE 11.5 ENE 0.0 155.3
13:55 8.0 9.4 91.0 1012.9 5.2 NNE 11.5 N 0.0 163.4
14:00 8.0 9.4 90.7 1012.9 5.0 NE 8.8 ENE 0.0 149.2
14:05 7.9 9.2 91.3 1012.9 5.9 NE 11.5 ENE 0.0 142.8
14:10 7.9 8.9 90.9 1012.8 5.0 NNE 8.8 NE 0.0 119.2
14:15 8.0 9.0 91.7 1012.7 5.2 NNE 8.8 NNE 0.0 131.0
14:20 8.0 8.9 89.9 1012.7 8.6 N 16.9 N 0.0 106.5
14:25 8.0 8.7 90.1 1012.7 4.4 NNE 14.2 N 0.0 76.9
14:30 7.9 8.5 90.0 1012.8 1.9 NNE 6.1 N 0.0 70.5
14:35 7.8 8.3 89.5 1012.9 2.7 NNE 11.5 N 0.0 79.5
14:40 7.8 8.3 89.3 1012.9 2.5 NNE 11.5 NE 0.0 94.5
14:45 7.7 8.3 88.5 1012.9 7.9 ENE 16.9 NE 0.0 103.7
14:50 7.6 8.2 89.2 1013.0 7.1 NE 14.2 ENE 0.0 106.2
14:55 7.7 8.3 90.2 1012.9 3.5 NNE 11.5 NE 0.0 96.6
15:00 7.7 8.2 90.5 1012.9 3.5 NE 8.8 NE 0.0 78.8
15:05 7.7 8.2 91.5 1013.0 2.8 NE 11.5 ENE 0.0 84.4
15:10 7.5 7.9 92.4 1013.0 2.7 NE 8.8 NE 0.0 72.6
15:15 7.3 7.8 93.8 1013.0 3.3 NE 8.8 NE 0.0 91.7
15:20 7.0 7.4 94.5 1013.0 5.2 NE 11.5 NE 0.0 80.6
15:25 6.8 7.3 95.6 1012.9 3.4 NE 8.8 ENE 0.1 76.7
15:30 6.8 7.3 96.2 1013.0 1.8 ENE 6.1 ENE 0.0 66.2
15:35 6.9 7.3 96.4 1013.0 1.2 NE 6.1 ESE 0.0 73.6
15:40 6.9 7.3 96.1 1012.9 5.8 NNE 11.5 ENE 0.0 79.7
15:45 7.0 7.3 95.8 1012.9 5.7 NNE 11.5 NE 0.0 69.4
15:50 7.1 7.2 95.4 1012.9 5.3 NNE 8.8 NNE 0.0 55.3
15:55 7.1 7.2 95.3 1012.8 5.4 NNE 8.8 N 0.0 56.1
16:00 7.0 7.1 94.5 1012.8 9.5 NNE 19.6 NNE 0.0 65.7
16:05 7.0 7.0 93.4 1012.8 7.3 NNE 19.6 NNE 0.0 62.1
16:10 7.1 6.9 92.4 1012.8 6.7 NNE 14.2 N 0.0 62.0
16:15 7.1 6.9 92.2 1012.8 6.8 NNE 14.2 NE 0.0 56.8
16:20 7.1 6.9 92.5 1012.8 5.1 NE 11.5 ENE 0.0 53.1
16:25 7.1 6.8 91.9 1012.9 5.7 ENE 14.2 E 0.0 36.4
16:30 6.9 6.7 93.8 1013.0 5.6 ENE 11.5 ENE 0.0 29.2
16:35 6.7 6.6 95.4 1013.1 3.6 NE 11.5 NNE 0.0 27.7
16:40 6.6 6.4 95.6 1013.0 5.0 NE 11.5 NE 0.0 25.0
16:45 6.5 6.3 95.6 1013.0 5.9 NE 11.5 ENE 0.0 23.0
16:50 6.4 6.2 95.2 1013.0 6.2 NE 19.6 NE 0.0 17.5
16:55 6.5 6.1 94.9 1013.1 4.5 N 8.8 NNW 0.0 15.0
17:00 6.4 6.1 94.9 1013.1 6.1 NNE 16.9 NE 0.0 15.1
17:05 6.4 5.9 94.2 1013.1 6.6 NNE 16.9 NE 0.0 12.6
17:10 6.3 5.9 94.3 1013.1 6.5 NNE 14.2 NNE 0.0 12.3
17:15 6.3 5.8 94.2 1013.1 4.5 NNE 11.5 NNE 0.0 12.4
17:20 6.3 5.8 93.8 1013.2 1.0 NNE 6.1 NE 0.1 11.3
17:25 6.3 5.7 94.0 1013.2 5.4 NNE 11.5 NE 0.0 10.2
17:30 6.3 5.7 94.2 1013.2 7.3 NNE 11.5 NE 0.0 9.1
17:35 6.3 5.7 94.4 1013.2 4.7 NNE 11.5 NNE 0.0 9.9
17:40 6.3 5.7 94.4 1013.3 2.4 ENE 6.1 NE 0.0 9.9
17:45 6.3 5.7 94.0 1013.3 6.0 NNE 14.2 NE 0.0 7.2
17:50 6.3 5.6 94.2 1013.4 4.5 NE 11.5 NE 0.1 5.0
17:55 6.2 5.6 94.7 1013.4 4.2 NE 11.5 ENE 0.0 3.6
18:00 6.2 5.6 94.8 1013.5 2.1 ENE 8.8 E 0.0 2.5
18:05 6.1 5.5 95.1 1013.6 2.3 ENE 11.5 E 0.0 1.3
18:10 6.1 5.5 95.3 1013.6 3.1 ENE 11.5 E 0.1 0.7
18:15 6.0 5.5 95.9 1013.7 3.3 E 8.8 ESE 0.1 0.4
18:20 5.8 5.4 96.5 1013.8 3.9 ENE 8.8 E 0.0 0.3
18:25 5.7 5.3 97.0 1013.8 2.2 ESE 8.8 ESE 0.1 0.2
18:30 5.6 5.3 97.4 1013.9 1.1 E 8.8 ESE 0.1 0.1
18:35 5.5 5.2 97.5 1013.9 4.0 NNE 11.5 NNE 0.0 0.1
18:40 5.5 5.1 97.7 1013.9 3.1 NNE 11.5 N 0.1 0.1
18:45 5.5 5.1 97.8 1014.0 2.1 NE 8.8 ENE 0.1 0.1
18:50 5.5 5.1 97.8 1014.0 1.2 ENE 8.8 ESE 0.1 0.1
18:55 5.4 5.0 97.8 1014.1 1.4 N 6.1 NNE 0.0 0.1
19:00 5.4 5.0 97.8 1014.1 1.3 NE 6.1 NNE 0.1 0.1
19:05 5.4 5.0 97.8 1014.1 0.5 NE 6.1 ENE 0.1 0.1
19:10 5.4 5.0 97.8 1014.1 1.5 NE 6.1 NNE 0.1 0.1
19:15 5.4 5.0 97.9 1014.2 1.3 NNE 6.1 NNW 0.1 0.1
19:20 5.4 4.9 97.8 1014.2 1.7 NNE 6.1 NE 0.1 0.1
19:25 5.4 4.9 97.9 1014.3 2.3 NE 8.8 NE 0.1 0.1
19:30 5.5 4.9 97.8 1014.3 1.5 NNE 6.1 ENE 0.0 0.1
19:35 5.5 4.9 97.7 1014.3 0.8 NE 8.8 N 0.1 0.1
19:40 5.5 4.9 97.6 1014.3 0.6 NNE 6.1 NNE 0.1 0.1
19:45 5.5 4.9 97.6 1014.3 2.0 N 6.1 NNE 0.0 0.1
19:50 5.5 4.9 97.6 1014.3 0.6 N 6.1 N 0.0 0.1
19:55 5.5 4.9 97.4 1014.3 3.9 N 8.8 N 0.1 0.1
20:00 5.5 4.9 97.5 1014.4 2.1 NNE 11.5 ENE 0.0 0.1
20:05 5.5 4.9 97.6 1014.4 3.4 NNE 8.8 ENE 0.1 0.1
20:10 5.5 4.9 97.5 1014.4 2.9 NNE 8.8 NNE 0.0 0.1
20:15 5.5 4.9 97.3 1014.4 3.0 NNE 11.5 NE 0.1 0.1
20:20 5.5 4.8 97.0 1014.5 2.4 NE 6.1 NNE 0.0 0.1
20:25 5.5 4.8 96.8 1014.5 2.7 NNE 8.8 NE 0.0 0.1
20:30 5.5 4.8 96.5 1014.5 1.6 NNE 6.1 NNE 0.1 0.1
20:35 5.5 4.8 96.2 1014.5 1.9 NNE 6.1 NNE 0.0 0.1
20:40 5.5 4.7 95.8 1014.5 4.2 NE 8.8 NE 0.0 0.1
20:45 5.5 4.7 95.5 1014.5 0.8 NNE 6.1 NE 0.0 0.1
20:50 5.4 4.7 95.9 1014.5 3.3 NNE 8.8 N 0.0 0.1
20:55 5.5 4.7 95.1 1014.6 3.3 NE 8.8 E 0.0 0.1
21:00 5.5 4.7 95.1 1014.6 2.9 N 8.8 NNE 0.0 0.1
21:05 5.5 4.7 95.4 1014.6 4.2 N 8.8 NE 0.0 0.1
21:10 5.5 4.7 95.5 1014.6 2.1 NNE 6.1 N 0.0 0.1
21:15 5.5 4.7 95.6 1014.6 4.2 NNE 8.8 NE 0.0 0.1
21:20 5.5 4.7 95.3 1014.6 2.7 NNE 8.8 NE 0.0 0.1
21:25 5.6 4.7 94.8 1014.6 3.2 NNE 8.8 NE 0.0 0.1
21:30 5.6 4.8 94.8 1014.6 4.1 NE 8.8 NNE 0.0 0.1
21:35 5.7 4.8 94.5 1014.6 3.4 NNE 6.1 NE 0.0 0.1
21:40 5.7 4.8 94.4 1014.6 3.3 NNE 14.2 NNE 0.0 0.1
21:45 5.7 4.8 94.5 1014.6 2.6 NNE 8.8 NE 0.0 0.1
21:50 5.8 4.8 94.5 1014.6 2.9 NNE 8.8 NNE 0.0 0.1
21:55 5.8 4.9 94.2 1014.5 2.7 N 8.8 N 0.0 0.1
22:00 5.9 4.9 94.2 1014.5 1.2 N 6.1 N 0.0 0.1
22:05 5.9 5.0 94.8 1014.5 2.8 NNE 8.8 NE 0.0 0.1
22:10 6.1 5.1 94.5 1014.5 3.7 NE 8.8 NE 0.0 0.1
22:15 6.1 5.2 94.0 1014.5 2.3 NNE 6.1 NNE 0.0 0.1
22:20 6.2 5.3 94.2 1014.5 1.2 NNE 6.1 NNE 0.0 0.1
22:25 6.2 5.4 94.8 1014.5 3.7 N 6.1 N 0.1 0.1
22:30 6.2 5.4 95.6 1014.5 4.2 NNE 8.8 NE 0.0 0.1
22:35 6.2 5.5 96.1 1014.5 1.2 N 6.1 N 0.0 0.1
22:40 6.2 5.6 96.7 1014.5 5.5 N 11.5 N 0.0 0.1
22:45 6.3 5.7 97.6 1014.5 3.7 N 11.5 N 0.0 0.1
Màxima 8.4 10.6 98.1 1014.6 9.5 NNE 19.6 NE 0.1 275.2
Mínima 3.2 2.7 86.0 1011.8
Total 2.5